sensor_id;sensor_type;location;lat;lon;timestamp;temperature;humidity
74809;DHT22;63338;39.544;2.596;2022-10-26T00:01:10;19.40;84.50
74809;DHT22;63338;39.544;2.596;2022-10-26T00:03:37;19.40;84.90
74809;DHT22;63338;39.544;2.596;2022-10-26T00:08:31;19.30;84.90
74809;DHT22;63338;39.544;2.596;2022-10-26T00:10:57;19.30;85.00
74809;DHT22;63338;39.544;2.596;2022-10-26T00:13:23;19.30;85.20
74809;DHT22;63338;39.544;2.596;2022-10-26T00:15:49;19.30;85.50
74809;DHT22;63338;39.544;2.596;2022-10-26T00:18:15;19.30;84.90
74809;DHT22;63338;39.544;2.596;2022-10-26T00:20:41;19.30;86.10
74809;DHT22;63338;39.544;2.596;2022-10-26T00:23:08;19.30;86.00
74809;DHT22;63338;39.544;2.596;2022-10-26T00:25:34;19.30;85.50
74809;DHT22;63338;39.544;2.596;2022-10-26T00:28:00;19.20;85.50
74809;DHT22;63338;39.544;2.596;2022-10-26T00:30:28;19.20;85.80
74809;DHT22;63338;39.544;2.596;2022-10-26T00:32:54;19.20;85.70
74809;DHT22;63338;39.544;2.596;2022-10-26T00:35:20;19.20;85.00
74809;DHT22;63338;39.544;2.596;2022-10-26T00:37:47;19.20;85.90
74809;DHT22;63338;39.544;2.596;2022-10-26T00:40:13;19.20;86.30
74809;DHT22;63338;39.544;2.596;2022-10-26T00:42:39;19.20;85.20
74809;DHT22;63338;39.544;2.596;2022-10-26T00:45:27;19.20;84.90
74809;DHT22;63338;39.544;2.596;2022-10-26T00:48:06;19.10;84.90
74809;DHT22;63338;39.544;2.596;2022-10-26T00:50:39;19.00;85.00
74809;DHT22;63338;39.544;2.596;2022-10-26T00:53:06;19.00;85.20
74809;DHT22;63338;39.544;2.596;2022-10-26T00:55:39;19.00;84.50
74809;DHT22;63338;39.544;2.596;2022-10-26T00:58:14;19.10;84.50
74809;DHT22;63338;39.544;2.596;2022-10-26T01:00:41;19.10;85.70
74809;DHT22;63338;39.544;2.596;2022-10-26T01:03:09;19.00;83.60
74809;DHT22;63338;39.544;2.596;2022-10-26T01:05:39;19.00;85.00
74809;DHT22;63338;39.544;2.596;2022-10-26T01:08:07;18.90;83.90
74809;DHT22;63338;39.544;2.596;2022-10-26T01:10:35;18.80;82.20
74809;DHT22;63338;39.544;2.596;2022-10-26T01:13:02;18.80;81.80
74809;DHT22;63338;39.544;2.596;2022-10-26T01:18:46;18.80;81.30
74809;DHT22;63338;39.544;2.596;2022-10-26T01:23:58;18.80;79.80
74809;DHT22;63338;39.544;2.596;2022-10-26T01:26:36;18.70;79.30
74809;DHT22;63338;39.544;2.596;2022-10-26T01:35:01;18.70;79.10
74809;DHT22;63338;39.544;2.596;2022-10-26T01:37:40;18.80;79.10
74809;DHT22;63338;39.544;2.596;2022-10-26T01:42:41;18.80;81.30
74809;DHT22;63338;39.544;2.596;2022-10-26T01:45:11;18.70;80.90
74809;DHT22;63338;39.544;2.596;2022-10-26T01:47:40;18.80;81.00
74809;DHT22;63338;39.544;2.596;2022-10-26T01:50:07;18.80;81.70
74809;DHT22;63338;39.544;2.596;2022-10-26T01:52:35;18.80;81.80
74809;DHT22;63338;39.544;2.596;2022-10-26T01:55:06;18.70;82.20
74809;DHT22;63338;39.544;2.596;2022-10-26T01:57:34;18.90;83.60
74809;DHT22;63338;39.544;2.596;2022-10-26T02:11:38;18.90;80.20
74809;DHT22;63338;39.544;2.596;2022-10-26T02:16:30;19.00;81.50
74809;DHT22;63338;39.544;2.596;2022-10-26T02:19:04;19.00;82.20
74809;DHT22;63338;39.544;2.596;2022-10-26T02:21:35;19.00;81.00
74809;DHT22;63338;39.544;2.596;2022-10-26T02:24:02;19.10;81.00
74809;DHT22;63338;39.544;2.596;2022-10-26T02:26:31;19.10;79.90
74809;DHT22;63338;39.544;2.596;2022-10-26T02:29:01;19.10;81.30
74809;DHT22;63338;39.544;2.596;2022-10-26T02:31:29;19.20;81.10
74809;DHT22;63338;39.544;2.596;2022-10-26T02:34:00;19.10;79.40
74809;DHT22;63338;39.544;2.596;2022-10-26T02:36:33;19.10;78.40
74809;DHT22;63338;39.544;2.596;2022-10-26T02:39:04;19.20;79.80
74809;DHT22;63338;39.544;2.596;2022-10-26T02:41:35;19.20;80.10
74809;DHT22;63338;39.544;2.596;2022-10-26T02:44:13;19.20;77.60
74809;DHT22;63338;39.544;2.596;2022-10-26T02:46:43;19.20;75.90
74809;DHT22;63338;39.544;2.596;2022-10-26T02:49:09;19.30;77.10
74809;DHT22;63338;39.544;2.596;2022-10-26T02:57:26;19.20;76.10
74809;DHT22;63338;39.544;2.596;2022-10-26T02:59:54;19.30;75.10
74809;DHT22;63338;39.544;2.596;2022-10-26T03:02:22;19.40;74.50
74809;DHT22;63338;39.544;2.596;2022-10-26T03:04:49;19.40;74.40
74809;DHT22;63338;39.544;2.596;2022-10-26T03:07:22;19.40;74.30
74809;DHT22;63338;39.544;2.596;2022-10-26T03:09:49;19.40;72.90
74809;DHT22;63338;39.544;2.596;2022-10-26T03:12:16;19.40;71.60
74809;DHT22;63338;39.544;2.596;2022-10-26T03:14:42;19.50;72.70
74809;DHT22;63338;39.544;2.596;2022-10-26T03:17:08;19.50;72.80
74809;DHT22;63338;39.544;2.596;2022-10-26T03:19:34;19.50;73.10
74809;DHT22;63338;39.544;2.596;2022-10-26T03:22:00;19.50;72.10
74809;DHT22;63338;39.544;2.596;2022-10-26T03:24:26;19.40;70.70
74809;DHT22;63338;39.544;2.596;2022-10-26T03:26:52;19.50;71.90
74809;DHT22;63338;39.544;2.596;2022-10-26T03:29:18;19.40;71.30
74809;DHT22;63338;39.544;2.596;2022-10-26T03:31:44;19.50;70.40
74809;DHT22;63338;39.544;2.596;2022-10-26T03:34:10;19.50;69.90
74809;DHT22;63338;39.544;2.596;2022-10-26T03:36:36;19.40;70.20
74809;DHT22;63338;39.544;2.596;2022-10-26T03:39:03;19.50;69.10
74809;DHT22;63338;39.544;2.596;2022-10-26T03:41:28;19.50;69.00
74809;DHT22;63338;39.544;2.596;2022-10-26T03:43:55;19.60;68.80
74809;DHT22;63338;39.544;2.596;2022-10-26T03:46:21;19.60;69.10
74809;DHT22;63338;39.544;2.596;2022-10-26T03:48:47;19.70;69.50
74809;DHT22;63338;39.544;2.596;2022-10-26T03:51:13;19.70;70.10
74809;DHT22;63338;39.544;2.596;2022-10-26T03:53:39;19.60;68.40
74809;DHT22;63338;39.544;2.596;2022-10-26T03:56:05;19.70;68.20
74809;DHT22;63338;39.544;2.596;2022-10-26T03:58:34;19.60;68.80
74809;DHT22;63338;39.544;2.596;2022-10-26T04:01:00;19.60;68.80
74809;DHT22;63338;39.544;2.596;2022-10-26T04:03:27;19.70;68.70
74809;DHT22;63338;39.544;2.596;2022-10-26T04:05:53;19.70;68.50
74809;DHT22;63338;39.544;2.596;2022-10-26T04:08:19;19.80;67.80
74809;DHT22;63338;39.544;2.596;2022-10-26T04:10:45;19.80;69.00
74809;DHT22;63338;39.544;2.596;2022-10-26T04:13:12;19.80;69.70
74809;DHT22;63338;39.544;2.596;2022-10-26T04:15:38;19.80;69.10
74809;DHT22;63338;39.544;2.596;2022-10-26T04:18:04;19.80;67.90
74809;DHT22;63338;39.544;2.596;2022-10-26T04:20:32;19.90;67.80
74809;DHT22;63338;39.544;2.596;2022-10-26T04:23:02;20.00;68.80
74809;DHT22;63338;39.544;2.596;2022-10-26T04:25:29;19.90;69.30
74809;DHT22;63338;39.544;2.596;2022-10-26T04:27:56;20.00;69.70
74809;DHT22;63338;39.544;2.596;2022-10-26T04:30:22;19.90;69.50
74809;DHT22;63338;39.544;2.596;2022-10-26T04:32:49;19.70;69.50
74809;DHT22;63338;39.544;2.596;2022-10-26T04:35:15;19.90;68.30
74809;DHT22;63338;39.544;2.596;2022-10-26T04:37:42;19.90;67.50
74809;DHT22;63338;39.544;2.596;2022-10-26T04:40:09;19.90;68.10
74809;DHT22;63338;39.544;2.596;2022-10-26T04:42:45;19.90;68.30
74809;DHT22;63338;39.544;2.596;2022-10-26T04:45:13;20.00;68.20
74809;DHT22;63338;39.544;2.596;2022-10-26T04:47:40;19.90;68.50
74809;DHT22;63338;39.544;2.596;2022-10-26T04:50:07;19.90;68.50
74809;DHT22;63338;39.544;2.596;2022-10-26T04:52:34;19.90;68.40
74809;DHT22;63338;39.544;2.596;2022-10-26T04:55:00;19.90;68.50
74809;DHT22;63338;39.544;2.596;2022-10-26T04:57:32;20.00;67.30
74809;DHT22;63338;39.544;2.596;2022-10-26T04:59:59;20.00;67.30
74809;DHT22;63338;39.544;2.596;2022-10-26T05:02:26;20.00;68.00
74809;DHT22;63338;39.544;2.596;2022-10-26T05:04:53;19.90;68.60
74809;DHT22;63338;39.544;2.596;2022-10-26T05:07:19;20.00;68.00
74809;DHT22;63338;39.544;2.596;2022-10-26T05:09:46;19.90;68.30
74809;DHT22;63338;39.544;2.596;2022-10-26T05:12:12;19.90;68.60
74809;DHT22;63338;39.544;2.596;2022-10-26T05:14:39;19.90;68.00
74809;DHT22;63338;39.544;2.596;2022-10-26T05:17:06;19.90;67.90
74809;DHT22;63338;39.544;2.596;2022-10-26T05:19:32;20.00;68.20
74809;DHT22;63338;39.544;2.596;2022-10-26T05:21:59;20.00;68.10
74809;DHT22;63338;39.544;2.596;2022-10-26T05:24:34;19.90;67.80
74809;DHT22;63338;39.544;2.596;2022-10-26T05:27:00;19.90;67.00
74809;DHT22;63338;39.544;2.596;2022-10-26T05:29:26;19.90;67.60
74809;DHT22;63338;39.544;2.596;2022-10-26T05:31:52;20.00;66.90
74809;DHT22;63338;39.544;2.596;2022-10-26T05:34:18;20.00;66.70
74809;DHT22;63338;39.544;2.596;2022-10-26T05:36:46;20.20;67.50
74809;DHT22;63338;39.544;2.596;2022-10-26T05:39:12;20.00;67.40
74809;DHT22;63338;39.544;2.596;2022-10-26T05:41:38;20.00;67.10
74809;DHT22;63338;39.544;2.596;2022-10-26T05:44:05;20.10;67.20
74809;DHT22;63338;39.544;2.596;2022-10-26T05:46:31;20.00;67.00
74809;DHT22;63338;39.544;2.596;2022-10-26T05:48:59;20.00;67.00
74809;DHT22;63338;39.544;2.596;2022-10-26T05:51:25;20.00;67.60
74809;DHT22;63338;39.544;2.596;2022-10-26T05:53:51;20.10;67.60
74809;DHT22;63338;39.544;2.596;2022-10-26T05:56:35;20.00;67.80
74809;DHT22;63338;39.544;2.596;2022-10-26T05:59:09;20.00;68.00
74809;DHT22;63338;39.544;2.596;2022-10-26T06:06:58;20.00;67.80
74809;DHT22;63338;39.544;2.596;2022-10-26T06:09:24;19.90;68.30
74809;DHT22;63338;39.544;2.596;2022-10-26T06:11:51;20.00;68.50
74809;DHT22;63338;39.544;2.596;2022-10-26T06:14:17;19.90;68.40
74809;DHT22;63338;39.544;2.596;2022-10-26T06:17:03;19.90;68.20
74809;DHT22;63338;39.544;2.596;2022-10-26T06:28:02;20.00;68.20
74809;DHT22;63338;39.544;2.596;2022-10-26T06:30:34;20.00;68.60
74809;DHT22;63338;39.544;2.596;2022-10-26T06:33:00;20.00;67.90
74809;DHT22;63338;39.544;2.596;2022-10-26T06:38:19;20.10;67.60
74809;DHT22;63338;39.544;2.596;2022-10-26T06:40:49;20.10;67.40
74809;DHT22;63338;39.544;2.596;2022-10-26T06:43:26;20.10;67.90
74809;DHT22;63338;39.544;2.596;2022-10-26T06:49:03;20.20;67.30
74809;DHT22;63338;39.544;2.596;2022-10-26T06:51:42;20.30;67.80
74809;DHT22;63338;39.544;2.596;2022-10-26T06:55:06;20.30;67.50
74809;DHT22;63338;39.544;2.596;2022-10-26T06:57:15;20.40;67.80
74809;DHT22;63338;39.544;2.596;2022-10-26T06:59:57;20.40;67.60
74809;DHT22;63338;39.544;2.596;2022-10-26T07:02:25;20.40;68.50
74809;DHT22;63338;39.544;2.596;2022-10-26T07:04:51;20.50;66.20
74809;DHT22;63338;39.544;2.596;2022-10-26T07:07:19;20.60;65.80
74809;DHT22;63338;39.544;2.596;2022-10-26T07:09:46;20.70;66.50
74809;DHT22;63338;39.544;2.596;2022-10-26T07:12:12;20.80;66.50
74809;DHT22;63338;39.544;2.596;2022-10-26T07:14:38;20.80;66.90
74809;DHT22;63338;39.544;2.596;2022-10-26T07:17:05;20.90;66.90
74809;DHT22;63338;39.544;2.596;2022-10-26T07:19:34;21.00;65.00
74809;DHT22;63338;39.544;2.596;2022-10-26T07:22:04;21.00;64.50
74809;DHT22;63338;39.544;2.596;2022-10-26T07:24:30;21.10;63.90
74809;DHT22;63338;39.544;2.596;2022-10-26T07:26:58;21.20;63.40
74809;DHT22;63338;39.544;2.596;2022-10-26T07:29:26;21.40;63.80
74809;DHT22;63338;39.544;2.596;2022-10-26T07:31:55;21.40;64.60
74809;DHT22;63338;39.544;2.596;2022-10-26T07:34:21;21.60;66.50
74809;DHT22;63338;39.544;2.596;2022-10-26T07:36:47;21.60;66.70
74809;DHT22;63338;39.544;2.596;2022-10-26T07:39:13;21.60;65.90
74809;DHT22;63338;39.544;2.596;2022-10-26T07:41:40;21.70;64.90
74809;DHT22;63338;39.544;2.596;2022-10-26T07:44:09;21.80;63.70
74809;DHT22;63338;39.544;2.596;2022-10-26T07:46:38;22.00;63.50
74809;DHT22;63338;39.544;2.596;2022-10-26T07:49:17;22.20;65.50
74809;DHT22;63338;39.544;2.596;2022-10-26T07:51:47;22.20;64.70
74809;DHT22;63338;39.544;2.596;2022-10-26T07:54:14;22.40;64.30
74809;DHT22;63338;39.544;2.596;2022-10-26T07:56:41;22.50;64.00
74809;DHT22;63338;39.544;2.596;2022-10-26T07:59:09;22.60;65.70
74809;DHT22;63338;39.544;2.596;2022-10-26T08:01:36;22.70;64.50
74809;DHT22;63338;39.544;2.596;2022-10-26T08:04:02;22.80;64.00
74809;DHT22;63338;39.544;2.596;2022-10-26T08:06:28;22.80;64.10
74809;DHT22;63338;39.544;2.596;2022-10-26T08:09:04;23.10;65.70
74809;DHT22;63338;39.544;2.596;2022-10-26T08:11:34;23.20;68.30
74809;DHT22;63338;39.544;2.596;2022-10-26T08:14:04;23.20;68.20
74809;DHT22;63338;39.544;2.596;2022-10-26T08:16:31;23.50;62.90
74809;DHT22;63338;39.544;2.596;2022-10-26T08:19:00;23.80;62.00
74809;DHT22;63338;39.544;2.596;2022-10-26T08:21:30;24.20;61.20
74809;DHT22;63338;39.544;2.596;2022-10-26T08:23:56;24.60;61.10
74809;DHT22;63338;39.544;2.596;2022-10-26T08:26:26;24.90;61.60
74809;DHT22;63338;39.544;2.596;2022-10-26T08:28:52;25.50;62.80
74809;DHT22;63338;39.544;2.596;2022-10-26T08:31:18;26.00;62.30
74809;DHT22;63338;39.544;2.596;2022-10-26T08:33:45;26.50;61.10
74809;DHT22;63338;39.544;2.596;2022-10-26T08:36:11;27.10;61.60
74809;DHT22;63338;39.544;2.596;2022-10-26T08:38:53;27.60;60.50
74809;DHT22;63338;39.544;2.596;2022-10-26T08:41:45;28.20;58.80
74809;DHT22;63338;39.544;2.596;2022-10-26T08:44:35;28.60;58.40
74809;DHT22;63338;39.544;2.596;2022-10-26T08:50:34;29.20;56.80
74809;DHT22;63338;39.544;2.596;2022-10-26T08:56:14;29.70;56.10
74809;DHT22;63338;39.544;2.596;2022-10-26T08:58:51;30.00;53.80
74809;DHT22;63338;39.544;2.596;2022-10-26T09:01:20;30.30;53.90
74809;DHT22;63338;39.544;2.596;2022-10-26T09:03:47;30.90;53.40
74809;DHT22;63338;39.544;2.596;2022-10-26T09:06:45;31.10;52.90
74809;DHT22;63338;39.544;2.596;2022-10-26T09:09:48;31.40;52.50
74809;DHT22;63338;39.544;2.596;2022-10-26T09:23:36;33.70;47.00
74809;DHT22;63338;39.544;2.596;2022-10-26T09:26:35;34.30;45.20
74809;DHT22;63338;39.544;2.596;2022-10-26T09:29:43;34.70;44.10
74809;DHT22;63338;39.544;2.596;2022-10-26T09:32:22;35.00;41.40
74809;DHT22;63338;39.544;2.596;2022-10-26T09:34:52;35.20;41.20
74809;DHT22;63338;39.544;2.596;2022-10-26T09:39:59;35.50;41.30
74809;DHT22;63338;39.544;2.596;2022-10-26T09:45:24;35.40;40.70
74809;DHT22;63338;39.544;2.596;2022-10-26T09:47:57;35.40;40.80
74809;DHT22;63338;39.544;2.596;2022-10-26T09:50:34;35.50;42.10
74809;DHT22;63338;39.544;2.596;2022-10-26T09:53:01;35.50;42.20
74809;DHT22;63338;39.544;2.596;2022-10-26T09:55:39;35.70;41.80
74809;DHT22;63338;39.544;2.596;2022-10-26T09:58:26;35.80;41.50
74809;DHT22;63338;39.544;2.596;2022-10-26T10:00:54;35.80;41.50
74809;DHT22;63338;39.544;2.596;2022-10-26T10:03:42;36.20;41.90
74809;DHT22;63338;39.544;2.596;2022-10-26T10:06:20;36.60;41.40
74809;DHT22;63338;39.544;2.596;2022-10-26T10:09:18;36.60;41.40
74809;DHT22;63338;39.544;2.596;2022-10-26T10:11:57;36.70;41.40
74809;DHT22;63338;39.544;2.596;2022-10-26T10:14:29;36.90;41.10
74809;DHT22;63338;39.544;2.596;2022-10-26T10:20:06;37.10;41.50
74809;DHT22;63338;39.544;2.596;2022-10-26T10:22:59;37.10;41.60
74809;DHT22;63338;39.544;2.596;2022-10-26T10:25:34;37.20;41.50
74809;DHT22;63338;39.544;2.596;2022-10-26T10:28:07;37.30;41.50
74809;DHT22;63338;39.544;2.596;2022-10-26T10:30:55;37.30;41.80
74809;DHT22;63338;39.544;2.596;2022-10-26T10:33:42;37.40;41.30
74809;DHT22;63338;39.544;2.596;2022-10-26T10:36:17;37.60;41.30
74809;DHT22;63338;39.544;2.596;2022-10-26T10:38:46;37.60;41.10
74809;DHT22;63338;39.544;2.596;2022-10-26T10:41:31;37.60;41.50
74809;DHT22;63338;39.544;2.596;2022-10-26T10:44:22;37.70;41.50
74809;DHT22;63338;39.544;2.596;2022-10-26T10:46:49;37.80;41.40
74809;DHT22;63338;39.544;2.596;2022-10-26T10:49:22;37.70;41.60
74809;DHT22;63338;39.544;2.596;2022-10-26T10:51:56;37.50;41.60
74809;DHT22;63338;39.544;2.596;2022-10-26T10:54:33;37.20;42.00
74809;DHT22;63338;39.544;2.596;2022-10-26T11:00:12;37.40;41.20
74809;DHT22;63338;39.544;2.596;2022-10-26T11:12:36;38.00;40.50
74809;DHT22;63338;39.544;2.596;2022-10-26T11:31:24;37.80;41.10
74809;DHT22;63338;39.544;2.596;2022-10-26T11:36:53;37.30;42.00
74809;DHT22;63338;39.544;2.596;2022-10-26T11:43:22;36.80;42.80
74809;DHT22;63338;39.544;2.596;2022-10-26T11:46:27;36.30;42.80
74809;DHT22;63338;39.544;2.596;2022-10-26T11:56:11;35.20;41.50
74809;DHT22;63338;39.544;2.596;2022-10-26T11:59:30;35.00;43.60
74809;DHT22;63338;39.544;2.596;2022-10-26T12:02:41;34.60;40.40
74809;DHT22;63338;39.544;2.596;2022-10-26T12:22:02;33.90;41.80
74809;DHT22;63338;39.544;2.596;2022-10-26T12:24:46;33.70;42.80
74809;DHT22;63338;39.544;2.596;2022-10-26T12:30:24;33.50;42.50
74809;DHT22;63338;39.544;2.596;2022-10-26T12:32:58;33.30;39.10
74809;DHT22;63338;39.544;2.596;2022-10-26T12:35:44;33.20;38.70
74809;DHT22;63338;39.544;2.596;2022-10-26T12:41:13;33.00;40.50
74809;DHT22;63338;39.544;2.596;2022-10-26T13:10:25;31.70;48.80
74809;DHT22;63338;39.544;2.596;2022-10-26T13:42:52;29.90;58.30
74809;DHT22;63338;39.544;2.596;2022-10-26T13:46:14;29.80;59.10
74809;DHT22;63338;39.544;2.596;2022-10-26T13:49:32;29.60;59.00
74809;DHT22;63338;39.544;2.596;2022-10-26T13:52:13;29.50;59.10
74809;DHT22;63338;39.544;2.596;2022-10-26T13:55:04;29.30;59.70
74809;DHT22;63338;39.544;2.596;2022-10-26T13:58:33;29.30;59.90
74809;DHT22;63338;39.544;2.596;2022-10-26T14:01:12;29.10;60.50
74809;DHT22;63338;39.544;2.596;2022-10-26T14:03:50;29.00;60.80
74809;DHT22;63338;39.544;2.596;2022-10-26T14:06:40;28.80;62.00
74809;DHT22;63338;39.544;2.596;2022-10-26T14:12:19;28.70;57.20
74809;DHT22;63338;39.544;2.596;2022-10-26T14:14:49;28.60;57.70
74809;DHT22;63338;39.544;2.596;2022-10-26T14:17:49;28.70;58.30
74809;DHT22;63338;39.544;2.596;2022-10-26T14:24:20;28.60;53.60
74809;DHT22;63338;39.544;2.596;2022-10-26T14:26:47;28.60;54.10
74809;DHT22;63338;39.544;2.596;2022-10-26T14:29:18;28.60;52.50
74809;DHT22;63338;39.544;2.596;2022-10-26T14:31:45;28.60;54.20
74809;DHT22;63338;39.544;2.596;2022-10-26T14:37:07;28.40;51.60
74809;DHT22;63338;39.544;2.596;2022-10-26T14:39:51;28.40;52.40
74809;DHT22;63338;39.544;2.596;2022-10-26T14:42:34;28.40;54.50
74809;DHT22;63338;39.544;2.596;2022-10-26T14:45:38;28.40;55.20
74809;DHT22;63338;39.544;2.596;2022-10-26T14:48:28;28.40;53.70
74809;DHT22;63338;39.544;2.596;2022-10-26T14:51:16;28.40;54.70
74809;DHT22;63338;39.544;2.596;2022-10-26T14:53:54;28.20;56.70
74809;DHT22;63338;39.544;2.596;2022-10-26T14:56:44;28.10;57.90
74809;DHT22;63338;39.544;2.596;2022-10-26T14:59:32;28.10;57.20
74809;DHT22;63338;39.544;2.596;2022-10-26T15:02:14;28.00;58.50
74809;DHT22;63338;39.544;2.596;2022-10-26T15:05:32;27.90;60.00
74809;DHT22;63338;39.544;2.596;2022-10-26T15:08:01;27.90;60.30
74809;DHT22;63338;39.544;2.596;2022-10-26T15:14:55;27.90;60.60
74809;DHT22;63338;39.544;2.596;2022-10-26T15:17:46;27.90;60.20
74809;DHT22;63338;39.544;2.596;2022-10-26T15:20:19;28.00;60.80
74809;DHT22;63338;39.544;2.596;2022-10-26T15:23:01;28.00;60.10
74809;DHT22;63338;39.544;2.596;2022-10-26T15:26:29;28.00;60.80
74809;DHT22;63338;39.544;2.596;2022-10-26T15:29:32;28.00;60.10
74809;DHT22;63338;39.544;2.596;2022-10-26T15:32:03;27.90;61.00
74809;DHT22;63338;39.544;2.596;2022-10-26T15:34:31;27.80;60.10
74809;DHT22;63338;39.544;2.596;2022-10-26T15:37:07;27.80;60.70
74809;DHT22;63338;39.544;2.596;2022-10-26T15:39:36;27.80;60.00
74809;DHT22;63338;39.544;2.596;2022-10-26T15:42:11;27.70;59.90
74809;DHT22;63338;39.544;2.596;2022-10-26T15:44:39;27.60;60.20
74809;DHT22;63338;39.544;2.596;2022-10-26T15:47:16;27.60;61.60
74809;DHT22;63338;39.544;2.596;2022-10-26T15:49:45;27.50;61.10
74809;DHT22;63338;39.544;2.596;2022-10-26T15:52:27;27.40;59.60
74809;DHT22;63338;39.544;2.596;2022-10-26T15:55:04;27.40;61.80
74809;DHT22;63338;39.544;2.596;2022-10-26T16:08:30;27.40;60.70
74809;DHT22;63338;39.544;2.596;2022-10-26T16:10:58;27.30;65.90
74809;DHT22;63338;39.544;2.596;2022-10-26T16:13:32;27.20;66.90
74809;DHT22;63338;39.544;2.596;2022-10-26T16:15:58;27.00;67.20
74809;DHT22;63338;39.544;2.596;2022-10-26T16:22:36;26.90;70.00
74809;DHT22;63338;39.544;2.596;2022-10-26T16:25:03;26.80;71.40
74809;DHT22;63338;39.544;2.596;2022-10-26T16:27:33;26.80;72.90
74809;DHT22;63338;39.544;2.596;2022-10-26T16:30:09;26.70;73.20
74809;DHT22;63338;39.544;2.596;2022-10-26T16:32:41;26.70;73.30
74809;DHT22;63338;39.544;2.596;2022-10-26T16:35:10;26.50;73.90
74809;DHT22;63338;39.544;2.596;2022-10-26T16:37:37;26.50;73.80
74809;DHT22;63338;39.544;2.596;2022-10-26T16:40:05;26.40;73.50
74809;DHT22;63338;39.544;2.596;2022-10-26T16:42:34;26.30;74.40
74809;DHT22;63338;39.544;2.596;2022-10-26T16:45:01;26.30;74.70
74809;DHT22;63338;39.544;2.596;2022-10-26T16:47:34;26.20;73.80
74809;DHT22;63338;39.544;2.596;2022-10-26T16:50:33;26.00;74.00
74809;DHT22;63338;39.544;2.596;2022-10-26T16:53:00;25.90;74.40
74809;DHT22;63338;39.544;2.596;2022-10-26T16:55:29;25.80;74.70
74809;DHT22;63338;39.544;2.596;2022-10-26T16:57:55;25.80;75.00
74809;DHT22;63338;39.544;2.596;2022-10-26T17:00:21;25.80;74.90
74809;DHT22;63338;39.544;2.596;2022-10-26T17:02:47;25.80;75.20
74809;DHT22;63338;39.544;2.596;2022-10-26T17:05:14;25.70;74.90
74809;DHT22;63338;39.544;2.596;2022-10-26T17:07:40;25.50;75.20
74809;DHT22;63338;39.544;2.596;2022-10-26T17:10:06;25.50;75.20
74809;DHT22;63338;39.544;2.596;2022-10-26T17:12:33;25.40;75.20
74809;DHT22;63338;39.544;2.596;2022-10-26T17:14:59;25.40;75.20
74809;DHT22;63338;39.544;2.596;2022-10-26T17:17:26;25.40;75.10
74809;DHT22;63338;39.544;2.596;2022-10-26T17:19:52;25.20;75.10
74809;DHT22;63338;39.544;2.596;2022-10-26T17:22:18;25.10;74.70
74809;DHT22;63338;39.544;2.596;2022-10-26T17:24:44;25.10;74.30
74809;DHT22;63338;39.544;2.596;2022-10-26T17:27:10;25.00;74.30
74809;DHT22;63338;39.544;2.596;2022-10-26T17:29:38;24.90;74.70
74809;DHT22;63338;39.544;2.596;2022-10-26T17:32:04;24.80;74.90
74809;DHT22;63338;39.544;2.596;2022-10-26T17:34:30;24.80;75.10
74809;DHT22;63338;39.544;2.596;2022-10-26T17:36:56;24.80;75.30
74809;DHT22;63338;39.544;2.596;2022-10-26T17:39:28;24.70;76.00
74809;DHT22;63338;39.544;2.596;2022-10-26T17:41:54;24.60;76.30
74809;DHT22;63338;39.544;2.596;2022-10-26T17:44:21;24.60;77.10
74809;DHT22;63338;39.544;2.596;2022-10-26T17:46:47;24.60;77.40
74809;DHT22;63338;39.544;2.596;2022-10-26T17:49:15;24.60;77.20
74809;DHT22;63338;39.544;2.596;2022-10-26T17:51:44;24.60;77.00
74809;DHT22;63338;39.544;2.596;2022-10-26T17:54:10;24.50;77.00
74809;DHT22;63338;39.544;2.596;2022-10-26T17:56:36;24.50;76.60
74809;DHT22;63338;39.544;2.596;2022-10-26T17:59:07;24.40;76.60
74809;DHT22;63338;39.544;2.596;2022-10-26T18:01:34;24.40;76.40
74809;DHT22;63338;39.544;2.596;2022-10-26T18:04:00;24.50;76.20
74809;DHT22;63338;39.544;2.596;2022-10-26T18:06:26;24.30;76.50
74809;DHT22;63338;39.544;2.596;2022-10-26T18:08:55;24.20;76.60
74809;DHT22;63338;39.544;2.596;2022-10-26T18:11:22;24.30;76.40
74809;DHT22;63338;39.544;2.596;2022-10-26T18:13:48;24.10;76.40
74809;DHT22;63338;39.544;2.596;2022-10-26T18:16:19;24.10;76.40
74809;DHT22;63338;39.544;2.596;2022-10-26T18:18:52;24.10;76.40
74809;DHT22;63338;39.544;2.596;2022-10-26T18:21:20;24.00;76.80
74809;DHT22;63338;39.544;2.596;2022-10-26T18:23:46;23.90;76.40
74809;DHT22;63338;39.544;2.596;2022-10-26T18:30:23;24.00;76.60
74809;DHT22;63338;39.544;2.596;2022-10-26T18:32:53;23.90;75.90
74809;DHT22;63338;39.544;2.596;2022-10-26T18:35:40;23.90;75.70
74809;DHT22;63338;39.544;2.596;2022-10-26T18:38:06;23.80;76.00
74809;DHT22;63338;39.544;2.596;2022-10-26T18:40:32;23.80;75.70
74809;DHT22;63338;39.544;2.596;2022-10-26T18:42:58;23.70;75.20
74809;DHT22;63338;39.544;2.596;2022-10-26T18:45:24;23.70;75.20
74809;DHT22;63338;39.544;2.596;2022-10-26T18:47:52;23.80;75.10
74809;DHT22;63338;39.544;2.596;2022-10-26T18:50:18;23.70;75.20
74809;DHT22;63338;39.544;2.596;2022-10-26T18:52:45;23.70;75.10
74809;DHT22;63338;39.544;2.596;2022-10-26T18:55:11;23.70;74.10
74809;DHT22;63338;39.544;2.596;2022-10-26T18:57:37;23.60;75.00
74809;DHT22;63338;39.544;2.596;2022-10-26T19:00:03;23.60;74.50
74809;DHT22;63338;39.544;2.596;2022-10-26T19:02:33;23.50;74.90
74809;DHT22;63338;39.544;2.596;2022-10-26T19:05:00;23.50;75.10
74809;DHT22;63338;39.544;2.596;2022-10-26T19:07:26;23.30;74.80
74809;DHT22;63338;39.544;2.596;2022-10-26T19:09:52;23.40;74.80
74809;DHT22;63338;39.544;2.596;2022-10-26T19:12:18;23.30;74.70
74809;DHT22;63338;39.544;2.596;2022-10-26T19:14:46;23.30;74.90
74809;DHT22;63338;39.544;2.596;2022-10-26T19:17:14;23.20;75.00
74809;DHT22;63338;39.544;2.596;2022-10-26T19:19:44;23.10;74.90
74809;DHT22;63338;39.544;2.596;2022-10-26T19:22:10;23.10;75.10
74809;DHT22;63338;39.544;2.596;2022-10-26T19:24:36;23.00;75.20
74809;DHT22;63338;39.544;2.596;2022-10-26T19:27:03;23.00;75.00
74809;DHT22;63338;39.544;2.596;2022-10-26T19:29:29;22.90;75.00
74809;DHT22;63338;39.544;2.596;2022-10-26T19:31:59;23.00;74.90
74809;DHT22;63338;39.544;2.596;2022-10-26T19:34:29;23.00;74.70
74809;DHT22;63338;39.544;2.596;2022-10-26T19:36:56;23.00;74.90
74809;DHT22;63338;39.544;2.596;2022-10-26T19:39:22;23.00;74.80
74809;DHT22;63338;39.544;2.596;2022-10-26T19:41:49;23.00;74.90
74809;DHT22;63338;39.544;2.596;2022-10-26T19:44:16;22.90;75.00
74809;DHT22;63338;39.544;2.596;2022-10-26T19:46:45;22.90;74.80
74809;DHT22;63338;39.544;2.596;2022-10-26T19:49:11;22.90;74.90
74809;DHT22;63338;39.544;2.596;2022-10-26T19:51:37;23.00;74.90
74809;DHT22;63338;39.544;2.596;2022-10-26T19:54:04;22.90;74.40
74809;DHT22;63338;39.544;2.596;2022-10-26T19:56:41;23.00;74.70
74809;DHT22;63338;39.544;2.596;2022-10-26T19:59:09;22.90;74.30